Pine Coupee, Louisiana
Current Conditions -  °F | °C
As of 6:53 PM on Friday 31 Oct 2014 (Local Time) from KAEX Reporting Station
Clear Clear  
Wind Chill: 62°   Ceiling: Unl
Heat Index: 62°   Visibility: 10mi
Dew Point: 47°   Wind: 8mph
Humidity: 58%   Direction: 350°N
Pressure: 30.18"   Gusts: NA
Location:  31.408°N, 92.8831°W
Report Text: KAEX 312353Z 35007KT 10SM CLR 17/08 A3018 RMK AO2 SLP222 T01670083 10228 20167 53025
Loading
Personal Weather Stations






























Interactive Weather Map
Tropical Storm Tracking
New forecast layout! Learn more

10-Day Weather Forecast

Advertisements
Track Severe Weather on mobile